createdAt,value
2018-10-19T00:02:07.278Z,14.64
2018-10-19T00:04:34.447Z,14.59
2018-10-19T00:07:01.587Z,14.57
2018-10-19T00:09:28.752Z,14.54
2018-10-19T00:11:55.926Z,14.54
2018-10-19T00:14:23.081Z,14.55
2018-10-19T00:16:50.234Z,14.50
2018-10-19T00:19:17.366Z,14.32
2018-10-19T00:21:44.521Z,14.24
2018-10-19T00:24:11.642Z,14.26
2018-10-19T00:26:38.781Z,14.30
2018-10-19T00:29:05.952Z,14.32
2018-10-19T00:31:33.042Z,14.30
2018-10-19T00:34:00.171Z,14.29
2018-10-19T00:36:27.309Z,14.32
2018-10-19T00:38:54.474Z,14.30
2018-10-19T00:41:21.623Z,14.21
2018-10-19T00:43:49.017Z,14.19
2018-10-19T00:46:16.184Z,14.23
2018-10-19T00:48:43.297Z,14.23
2018-10-19T00:51:10.608Z,14.26
2018-10-19T00:53:37.685Z,14.32
2018-10-19T00:56:04.867Z,14.24
2018-10-19T00:58:32.038Z,14.24
2018-10-19T01:00:59.273Z,14.13
2018-10-19T01:03:26.429Z,14.13
2018-10-19T01:05:53.591Z,14.14
2018-10-19T01:08:20.767Z,14.23
2018-10-19T01:10:47.913Z,14.21
2018-10-19T01:13:15.096Z,14.16
2018-10-19T01:15:42.236Z,14.12
2018-10-19T01:18:09.433Z,14.05
2018-10-19T01:20:36.616Z,14.16
2018-10-19T01:23:04.229Z,14.23
2018-10-19T01:25:31.366Z,14.19
2018-10-19T01:27:58.496Z,14.09
2018-10-19T01:30:25.746Z,13.86
2018-10-19T01:32:52.969Z,13.82
2018-10-19T01:35:20.095Z,13.78
2018-10-19T01:37:47.290Z,13.67
2018-10-19T01:40:14.468Z,13.59
2018-10-19T01:42:41.653Z,13.47
2018-10-19T01:45:10.744Z,13.47
2018-10-19T01:47:38.330Z,13.61
2018-10-19T01:50:05.765Z,13.79
2018-10-19T01:52:32.909Z,13.77
2018-10-19T01:55:00.062Z,13.71
2018-10-19T01:57:27.255Z,13.61
2018-10-19T01:59:54.430Z,13.45
2018-10-19T02:02:21.690Z,13.41
2018-10-19T02:04:48.926Z,13.38
2018-10-19T02:07:16.049Z,13.40
2018-10-19T02:09:43.195Z,13.39
2018-10-19T02:12:10.346Z,13.44
2018-10-19T02:14:38.077Z,13.46
2018-10-19T02:17:05.996Z,13.38
2018-10-19T02:19:33.096Z,13.25
2018-10-19T02:22:00.198Z,13.22
2018-10-19T02:24:27.351Z,13.20
2018-10-19T02:26:54.587Z,13.16
2018-10-19T02:29:21.675Z,13.13
2018-10-19T02:31:48.836Z,13.03
2018-10-19T02:34:15.996Z,12.91
2018-10-19T02:36:43.662Z,12.92
2018-10-19T02:39:10.879Z,12.97
2018-10-19T02:41:38.018Z,12.98
2018-10-19T02:44:05.313Z,12.89
2018-10-19T02:46:32.488Z,12.85
2018-10-19T02:48:59.640Z,12.83
2018-10-19T02:51:26.817Z,12.79
2018-10-19T02:53:53.962Z,12.77
2018-10-19T02:56:21.132Z,12.73
2018-10-19T02:58:48.444Z,12.75
2018-10-19T03:01:15.984Z,12.71
2018-10-19T03:03:43.182Z,12.62
2018-10-19T03:06:10.333Z,12.56
2018-10-19T03:08:37.517Z,12.49
2018-10-19T03:11:05.056Z,12.41
2018-10-19T03:13:32.158Z,12.35
2018-10-19T03:15:59.285Z,12.12
2018-10-19T03:18:26.471Z,12.32
2018-10-19T03:20:53.669Z,12.28
2018-10-19T03:23:20.806Z,12.31
2018-10-19T03:25:47.923Z,12.35
2018-10-19T03:28:15.115Z,12.40
2018-10-19T03:30:42.276Z,12.33
2018-10-19T03:33:09.437Z,12.37
2018-10-19T03:35:36.607Z,12.32
2018-10-19T03:38:04.154Z,12.33
2018-10-19T03:40:31.303Z,12.35
2018-10-19T03:42:58.489Z,12.34
2018-10-19T03:45:25.690Z,12.33
2018-10-19T03:47:52.865Z,12.20
2018-10-19T03:50:20.008Z,12.16
2018-10-19T03:52:47.170Z,12.10
2018-10-19T03:55:14.345Z,12.10
2018-10-19T03:57:41.491Z,12.07
2018-10-19T04:00:08.654Z,12.01
2018-10-19T04:02:35.813Z,11.95
2018-10-19T04:05:03.018Z,11.91
2018-10-19T04:07:30.225Z,11.87
2018-10-19T04:09:57.448Z,11.85
2018-10-19T04:12:24.716Z,11.80
2018-10-19T04:14:51.851Z,11.78
2018-10-19T04:17:19.002Z,11.82
2018-10-19T04:19:46.137Z,11.79
2018-10-19T04:22:13.290Z,11.87
2018-10-19T04:24:40.429Z,11.93
2018-10-19T04:27:07.828Z,11.96
2018-10-19T04:29:34.888Z,11.89
2018-10-19T04:32:02.024Z,11.86
2018-10-19T04:34:29.342Z,11.86
2018-10-19T04:37:01.872Z,11.88
2018-10-19T04:39:29.065Z,11.88
2018-10-19T04:41:56.363Z,11.88
2018-10-19T04:44:23.613Z,11.88
2018-10-19T04:46:50.766Z,11.90
2018-10-19T04:49:17.922Z,11.75
2018-10-19T04:51:45.114Z,11.61
2018-10-19T04:54:12.373Z,11.78
2018-10-19T04:56:39.551Z,11.77
2018-10-19T04:59:06.857Z,11.85
2018-10-19T05:01:34.039Z,11.90
2018-10-19T05:04:01.182Z,11.91
2018-10-19T05:06:28.573Z,11.95
2018-10-19T05:08:55.726Z,12.07
2018-10-19T05:11:22.893Z,12.08
2018-10-19T05:13:50.071Z,12.06
2018-10-19T05:16:17.422Z,12.04
2018-10-19T05:18:44.606Z,11.97
2018-10-19T05:21:11.858Z,12.03
2018-10-19T05:23:39.335Z,12.04
2018-10-19T05:26:06.691Z,12.04
2018-10-19T05:28:34.066Z,11.94
2018-10-19T05:31:01.270Z,11.99
2018-10-19T05:33:28.707Z,11.91
2018-10-19T05:35:56.112Z,11.92
2018-10-19T05:38:23.533Z,11.96
2018-10-19T05:40:50.686Z,11.95
2018-10-19T05:43:17.895Z,11.97
2018-10-19T05:45:45.249Z,11.97
2018-10-19T05:48:12.499Z,11.95
2018-10-19T05:50:39.664Z,11.97
2018-10-19T05:53:06.873Z,11.98
2018-10-19T05:55:34.016Z,11.95
2018-10-19T05:58:01.274Z,11.79
2018-10-19T06:00:28.511Z,11.77
2018-10-19T06:02:55.662Z,11.79
2018-10-19T06:05:22.826Z,11.75
2018-10-19T06:07:50.099Z,11.82
2018-10-19T06:10:18.240Z,11.83
2018-10-19T06:12:45.472Z,11.81
2018-10-19T06:15:12.877Z,11.82
2018-10-19T06:17:40.092Z,11.78
2018-10-19T06:20:07.414Z,11.72
2018-10-19T06:22:34.512Z,11.69
2018-10-19T06:25:01.751Z,11.68
2018-10-19T06:27:28.977Z,11.66
2018-10-19T06:29:57.236Z,11.62
2018-10-19T06:32:24.460Z,8.89
2018-10-19T06:34:51.626Z,11.61
2018-10-19T06:37:18.854Z,11.67
2018-10-19T06:39:46.299Z,11.69
2018-10-19T06:42:13.562Z,11.66
2018-10-19T06:44:40.814Z,11.71
2018-10-19T06:47:08.215Z,11.77
2018-10-19T06:49:35.470Z,11.90
2018-10-19T06:52:02.782Z,11.89
2018-10-19T06:54:30.240Z,11.95
2018-10-19T06:56:57.618Z,11.99
2018-10-19T06:59:24.904Z,12.04
2018-10-19T07:01:52.226Z,12.05
2018-10-19T07:04:19.371Z,12.04
2018-10-19T07:06:47.207Z,12.12
2018-10-19T07:09:14.606Z,12.26
2018-10-19T07:11:41.895Z,12.34
2018-10-19T07:14:09.151Z,12.38
2018-10-19T07:16:36.331Z,12.38
2018-10-19T07:23:56.307Z,12.56
2018-10-19T07:26:23.534Z,12.69
2018-10-19T07:28:50.773Z,12.75
2018-10-19T07:31:18.984Z,12.87
2018-10-19T07:33:46.153Z,12.92
2018-10-19T07:36:13.397Z,13.01
2018-10-19T07:38:40.634Z,13.08
2018-10-19T07:41:07.971Z,13.16
2018-10-19T07:43:35.186Z,13.29
2018-10-19T07:46:02.541Z,13.36
2018-10-19T07:48:29.869Z,13.44
2018-10-19T07:50:57.104Z,13.58
2018-10-19T07:53:24.864Z,13.54
2018-10-19T07:55:53.133Z,13.55
2018-10-19T07:58:20.586Z,13.63
2018-10-19T08:00:49.030Z,13.69
2018-10-19T08:03:16.294Z,13.79
2018-10-19T08:05:43.563Z,13.82
2018-10-19T08:08:11.191Z,13.83
2018-10-19T08:10:39.256Z,13.89
2018-10-19T08:13:06.755Z,13.89
2018-10-19T08:15:34.011Z,13.98
2018-10-19T08:18:01.259Z,14.12
2018-10-19T08:20:28.546Z,14.16
2018-10-19T08:22:55.851Z,14.21
2018-10-19T08:25:23.234Z,14.28
2018-10-19T08:27:50.462Z,14.34
2018-10-19T08:30:17.663Z,14.33
2018-10-19T08:32:45.793Z,14.41
2018-10-19T08:35:13.175Z,14.47
2018-10-19T08:37:40.530Z,14.51
2018-10-19T08:40:07.675Z,14.57
2018-10-19T08:42:35.127Z,14.61
2018-10-19T08:45:02.400Z,14.62
2018-10-19T08:47:29.715Z,14.64
2018-10-19T08:49:56.859Z,14.64
2018-10-19T08:52:24.019Z,14.67
2018-10-19T08:54:51.741Z,14.71
2018-10-19T08:57:18.918Z,14.75
2018-10-19T08:59:46.919Z,14.85
2018-10-19T09:02:14.199Z,14.89
2018-10-19T09:04:41.509Z,14.99
2018-10-19T09:07:08.742Z,14.96
2018-10-19T09:09:35.966Z,15.00
2018-10-19T09:12:03.338Z,15.05
2018-10-19T09:14:41.961Z,15.14
2018-10-19T09:17:09.240Z,15.27
2018-10-19T09:19:36.491Z,15.31
2018-10-19T09:22:03.676Z,15.39
2018-10-19T09:24:30.969Z,15.41
2018-10-19T09:26:58.370Z,15.56
2018-10-19T09:29:25.625Z,15.52
2018-10-19T09:31:52.865Z,15.54
2018-10-19T09:34:20.135Z,15.57
2018-10-19T09:36:47.701Z,15.63
2018-10-19T09:39:15.722Z,15.76
2018-10-19T09:41:43.103Z,15.80
2018-10-19T09:44:10.349Z,15.80
2018-10-19T09:46:39.325Z,15.87
2018-10-19T09:49:07.857Z,15.97
2018-10-19T09:51:35.510Z,16.02
2018-10-19T09:54:02.775Z,16.10
2018-10-19T09:56:29.966Z,15.97
2018-10-19T09:58:57.216Z,16.04
2018-10-19T10:01:28.361Z,16.10
2018-10-19T10:03:55.663Z,16.06
2018-10-19T10:06:23.127Z,16.14
2018-10-19T10:08:50.356Z,16.29
2018-10-19T10:11:17.777Z,16.31
2018-10-19T10:13:45.399Z,16.29
2018-10-19T10:16:12.663Z,16.44
2018-10-19T10:18:40.205Z,12.97
2018-10-19T10:21:07.891Z,16.70
2018-10-19T10:23:35.099Z,16.76
2018-10-19T10:26:02.231Z,16.92
2018-10-19T10:28:29.621Z,16.94
2018-10-19T10:30:56.996Z,16.97
2018-10-19T10:33:24.350Z,17.04
2018-10-19T10:35:51.662Z,16.98
2018-10-19T10:38:18.993Z,17.12
2018-10-19T10:40:46.658Z,17.13
2018-10-19T10:43:14.095Z,17.30
2018-10-19T10:45:41.267Z,17.41
2018-10-19T10:48:08.617Z,17.46
2018-10-19T10:50:35.939Z,17.55
2018-10-19T10:53:03.204Z,17.55
2018-10-19T10:55:30.457Z,17.70
2018-10-19T10:57:57.820Z,17.69
2018-10-19T11:00:25.077Z,17.70
2018-10-19T11:02:53.106Z,17.68
2018-10-19T11:05:20.384Z,17.81
2018-10-19T11:07:49.776Z,17.99
2018-10-19T11:10:17.106Z,18.16
2018-10-19T11:12:44.171Z,18.19
2018-10-19T11:15:12.646Z,18.33
2018-10-19T11:17:40.804Z,18.34
2018-10-19T11:20:08.050Z,18.39
2018-10-19T11:22:35.370Z,18.51
2018-10-19T11:25:02.671Z,18.59
2018-10-19T11:27:29.935Z,18.68
2018-10-19T11:29:57.433Z,18.74
2018-10-19T11:32:24.630Z,18.83
2018-10-19T11:34:51.834Z,18.79
2018-10-19T11:37:19.176Z,18.69
2018-10-19T11:39:58.383Z,18.78
2018-10-19T11:42:26.843Z,18.84
2018-10-19T11:44:54.232Z,18.79
2018-10-19T11:47:21.960Z,18.85
2018-10-19T11:49:49.146Z,19.04
2018-10-19T11:52:16.403Z,19.23
2018-10-19T11:54:43.645Z,19.39
2018-10-19T11:57:11.528Z,19.51
2018-10-19T11:59:38.630Z,19.61
2018-10-19T12:02:06.665Z,19.74
2018-10-19T12:04:34.308Z,19.91
2018-10-19T12:07:01.812Z,19.96
2018-10-19T12:09:28.975Z,20.05
2018-10-19T12:11:56.195Z,20.03
2018-10-19T12:14:23.371Z,19.99
2018-10-19T12:16:51.131Z,19.84
2018-10-19T12:19:22.608Z,19.98
2018-10-19T12:21:50.126Z,20.02
2018-10-19T12:24:17.750Z,20.13
2018-10-19T12:26:45.045Z,20.26
2018-10-19T12:29:12.251Z,20.46
2018-10-19T12:31:40.563Z,20.58
2018-10-19T12:34:08.980Z,20.61
2018-10-19T12:36:36.578Z,20.43
2018-10-19T12:39:06.654Z,20.43
2018-10-19T12:41:34.352Z,20.68
2018-10-19T12:44:01.550Z,20.85
2018-10-19T12:46:42.181Z,20.94
2018-10-19T12:49:11.286Z,20.95
2018-10-19T12:51:39.232Z,20.90
2018-10-19T12:54:13.309Z,20.84
2018-10-19T12:56:41.113Z,20.79
2018-10-19T12:59:08.453Z,20.79
2018-10-19T13:01:35.917Z,20.81
2018-10-19T13:04:03.458Z,20.79
2018-10-19T13:06:30.797Z,20.87
2018-10-19T13:08:58.168Z,20.92
2018-10-19T13:11:25.831Z,21.00
2018-10-19T13:13:53.311Z,20.86
2018-10-19T13:16:20.872Z,21.13
2018-10-19T13:18:48.158Z,21.27
2018-10-19T13:21:15.438Z,21.24
2018-10-19T13:23:42.733Z,21.49
2018-10-19T13:26:10.257Z,21.66
2018-10-19T13:28:37.524Z,21.66
2018-10-19T13:31:04.859Z,21.60
2018-10-19T13:33:33.177Z,21.53
2018-10-19T13:36:00.458Z,21.69
2018-10-19T13:38:27.641Z,21.85
2018-10-19T13:40:55.416Z,17.86
2018-10-19T13:43:23.040Z,21.82
2018-10-19T13:45:50.758Z,21.54
2018-10-19T13:48:18.509Z,21.53
2018-10-19T13:50:46.232Z,21.42
2018-10-19T13:53:13.905Z,21.48
2018-10-19T13:55:41.099Z,21.56
2018-10-19T13:58:08.386Z,21.66
2018-10-19T14:00:35.753Z,21.86
2018-10-19T14:03:03.104Z,21.94
2018-10-19T14:05:30.661Z,21.89
2018-10-19T14:07:57.852Z,21.91
2018-10-19T14:10:25.208Z,21.68
2018-10-19T14:12:52.483Z,21.22
2018-10-19T14:15:19.844Z,21.03
2018-10-19T14:17:47.210Z,20.90
2018-10-19T14:20:14.824Z,20.66
2018-10-19T14:22:42.087Z,20.77
2018-10-19T14:25:11.489Z,20.81
2018-10-19T14:27:40.014Z,20.82
2018-10-19T14:30:10.350Z,20.70
2018-10-19T14:32:39.277Z,20.71
2018-10-19T14:35:06.863Z,20.73
2018-10-19T14:37:34.869Z,20.72
2018-10-19T14:40:02.112Z,20.70
2018-10-19T14:42:29.485Z,20.70
2018-10-19T14:44:56.811Z,20.72
2018-10-19T14:47:24.136Z,20.63
2018-10-19T14:49:51.606Z,20.49
2018-10-19T14:52:18.880Z,20.37
2018-10-19T14:54:46.297Z,20.42
2018-10-19T14:57:13.767Z,20.45
2018-10-19T14:59:45.090Z,20.30
2018-10-19T15:02:12.278Z,20.26
2018-10-19T15:04:39.466Z,20.22
2018-10-19T15:07:06.622Z,20.22
2018-10-19T15:09:33.832Z,20.24
2018-10-19T15:12:01.015Z,20.19
2018-10-19T15:14:29.131Z,20.15
2018-10-19T15:16:56.409Z,20.08
2018-10-19T15:19:25.399Z,20.06
2018-10-19T15:21:52.706Z,20.00
2018-10-19T15:24:19.998Z,19.97
2018-10-19T15:26:47.253Z,19.93
2018-10-19T15:29:15.493Z,19.99
2018-10-19T15:31:42.862Z,19.89
2018-10-19T15:34:10.128Z,19.81
2018-10-19T15:36:37.538Z,19.79
2018-10-19T15:39:07.638Z,19.74
2018-10-19T15:41:34.915Z,19.66
2018-10-19T15:44:02.144Z,19.64
2018-10-19T15:46:29.465Z,19.62
2018-10-19T15:48:56.634Z,19.57
2018-10-19T15:51:23.837Z,19.50
2018-10-19T15:53:51.381Z,19.44
2018-10-19T15:56:18.696Z,19.42
2018-10-19T15:58:45.980Z,19.41
2018-10-19T16:01:13.252Z,19.34
2018-10-19T16:03:40.715Z,19.31
2018-10-19T16:06:08.257Z,19.30
2018-10-19T16:08:35.665Z,19.28
2018-10-19T16:11:02.939Z,19.20
2018-10-19T16:13:30.615Z,19.14
2018-10-19T16:15:58.346Z,19.15
2018-10-19T16:18:28.532Z,19.15
2018-10-19T16:20:56.234Z,19.12
2018-10-19T16:23:24.709Z,19.03
2018-10-19T16:25:55.370Z,19.00
2018-10-19T16:28:24.508Z,18.96
2018-10-19T16:30:51.965Z,18.87
2018-10-19T16:33:19.778Z,18.82
2018-10-19T16:35:48.711Z,18.75
2018-10-19T16:38:16.230Z,18.70
2018-10-19T16:40:43.523Z,18.58
2018-10-19T16:43:10.882Z,18.52
2018-10-19T16:45:38.859Z,18.49
2018-10-19T16:48:06.953Z,18.46
2018-10-19T16:50:34.222Z,18.41
2018-10-19T16:53:01.573Z,18.36
2018-10-19T16:55:28.728Z,18.30
2018-10-19T16:57:56.017Z,18.24
2018-10-19T17:00:23.304Z,18.18
2018-10-19T17:02:50.708Z,18.16
2018-10-19T17:05:17.942Z,18.12
2018-10-19T17:07:45.148Z,18.01
2018-10-19T17:10:12.416Z,17.99
2018-10-19T17:12:40.676Z,17.96
2018-10-19T17:15:09.760Z,17.91
2018-10-19T17:17:37.480Z,17.83
2018-10-19T17:20:05.075Z,17.80
2018-10-19T17:22:32.421Z,17.71
2018-10-19T17:25:00.241Z,17.67
2018-10-19T17:27:27.701Z,17.67
2018-10-19T17:29:55.211Z,17.60
2018-10-19T17:32:22.773Z,17.53
2018-10-19T17:34:50.428Z,17.15
2018-10-19T17:37:17.714Z,17.36
2018-10-19T17:39:46.525Z,17.29
2018-10-19T17:42:13.773Z,17.22
2018-10-19T17:44:41.465Z,17.18
2018-10-19T17:47:09.658Z,17.13
2018-10-19T17:50:03.624Z,17.07
2018-10-19T17:52:31.132Z,16.98
2018-10-19T17:54:58.432Z,16.93
2018-10-19T17:57:26.143Z,16.90
2018-10-19T17:59:53.362Z,16.86
2018-10-19T18:02:20.504Z,16.78
2018-10-19T18:04:48.106Z,16.74
2018-10-19T18:07:18.371Z,16.74
2018-10-19T18:09:47.006Z,16.64
2018-10-19T18:12:14.346Z,16.57
2018-10-19T18:14:41.612Z,16.58
2018-10-19T18:17:08.924Z,16.56
2018-10-19T18:19:36.255Z,16.45
2018-10-19T18:24:39.358Z,16.28
2018-10-19T18:27:06.673Z,16.24
2018-10-19T18:29:33.826Z,16.13
2018-10-19T18:32:01.125Z,16.16
2018-10-19T18:34:28.363Z,16.15
2018-10-19T18:36:55.642Z,16.20
2018-10-19T18:39:22.962Z,16.16
2018-10-19T18:41:50.293Z,16.04
2018-10-19T18:44:17.598Z,15.97
2018-10-19T18:46:44.766Z,15.97
2018-10-19T18:49:12.091Z,15.93
2018-10-19T18:51:39.527Z,15.87
2018-10-19T18:54:07.024Z,15.74
2018-10-19T18:56:34.466Z,15.65
2018-10-19T18:59:01.819Z,15.64
2018-10-19T19:01:29.242Z,15.61
2018-10-19T19:03:56.670Z,15.66
2018-10-19T19:06:23.995Z,15.69
2018-10-19T19:08:51.503Z,15.63
2018-10-19T19:11:19.004Z,15.46
2018-10-19T19:13:48.329Z,15.39
2018-10-19T19:16:21.478Z,15.35
2018-10-19T19:18:48.852Z,15.26
2018-10-19T19:21:16.179Z,15.25
2018-10-19T19:23:49.073Z,15.37
2018-10-19T19:26:20.130Z,15.43
2018-10-19T19:31:26.006Z,15.07
2018-10-19T19:33:59.163Z,14.96
2018-10-19T19:36:26.504Z,14.89
2018-10-19T19:38:53.957Z,14.88
2018-10-19T19:41:27.066Z,14.80
2018-10-19T19:43:54.382Z,14.79
2018-10-19T19:46:21.671Z,14.77
2018-10-19T19:48:54.523Z,14.78
2018-10-19T19:51:21.670Z,14.71
2018-10-19T19:53:49.128Z,14.70
2018-10-19T19:56:16.425Z,14.66
2018-10-19T19:58:44.569Z,14.61
2018-10-19T20:01:11.999Z,14.61
2018-10-19T20:03:47.762Z,14.59
2018-10-19T20:06:15.222Z,14.51
2018-10-19T20:08:42.419Z,14.58
2018-10-19T20:11:09.703Z,14.48
2018-10-19T20:13:36.871Z,14.44
2018-10-19T20:16:04.384Z,14.38
2018-10-19T20:18:31.603Z,14.42
2018-10-19T20:20:58.782Z,14.30
2018-10-19T20:23:26.042Z,14.34
2018-10-19T20:25:53.488Z,14.44
2018-10-19T20:28:20.904Z,14.35
2018-10-19T20:30:48.418Z,13.94
2018-10-19T20:33:15.654Z,14.31
2018-10-19T20:35:42.868Z,14.31
2018-10-19T20:38:10.321Z,14.18
2018-10-19T20:40:37.539Z,14.08
2018-10-19T20:43:05.471Z,14.01
2018-10-19T20:45:32.778Z,13.95
2018-10-19T20:48:00.089Z,14.02
2018-10-19T20:50:27.288Z,14.04
2018-10-19T20:52:54.692Z,14.02
2018-10-19T20:55:22.017Z,13.94
2018-10-19T20:57:49.210Z,13.98
2018-10-19T21:00:17.536Z,13.98
2018-10-19T21:02:45.266Z,13.96
2018-10-19T21:05:12.576Z,13.78
2018-10-19T21:07:39.794Z,13.77
2018-10-19T21:10:09.461Z,13.75
2018-10-19T21:12:37.323Z,13.65
2018-10-19T21:15:05.788Z,13.46
2018-10-19T21:17:33.103Z,13.46
2018-10-19T21:20:00.309Z,13.50
2018-10-19T21:22:27.542Z,13.46
2018-10-19T21:24:54.756Z,13.33
2018-10-19T21:27:22.057Z,13.31
2018-10-19T21:29:49.851Z,13.28
2018-10-19T21:32:17.111Z,13.31
2018-10-19T21:34:44.227Z,13.25
2018-10-19T21:37:11.641Z,13.15
2018-10-19T21:39:38.838Z,13.25
2018-10-19T21:42:06.095Z,13.16
2018-10-19T21:44:33.410Z,13.20
2018-10-19T21:47:00.755Z,13.16
2018-10-19T21:49:27.945Z,13.17
2018-10-19T21:51:55.357Z,13.08
2018-10-19T21:54:22.726Z,11.72
2018-10-19T21:56:49.869Z,13.08
2018-10-19T21:59:17.186Z,13.01
2018-10-19T22:01:44.214Z,13.06
2018-10-19T22:04:11.442Z,13.07
2018-10-19T22:06:38.599Z,13.04
2018-10-19T22:09:09.890Z,12.95
2018-10-19T22:11:37.813Z,12.86
2018-10-19T22:14:04.962Z,12.88
2018-10-19T22:16:32.272Z,12.82
2018-10-19T22:18:59.460Z,12.57
2018-10-19T22:21:26.613Z,12.31
2018-10-19T22:23:53.814Z,12.40
2018-10-19T22:26:21.033Z,12.54
2018-10-19T22:28:48.221Z,12.60
2018-10-19T22:31:15.426Z,12.61
2018-10-19T22:33:42.577Z,12.62
2018-10-19T22:36:09.846Z,12.61
2018-10-19T22:38:37.074Z,12.60
2018-10-19T22:41:04.804Z,12.54
2018-10-19T22:43:32.060Z,12.60
2018-10-19T22:45:59.286Z,12.59
2018-10-19T22:48:26.434Z,12.60
2018-10-19T22:50:53.631Z,12.56
2018-10-19T22:53:20.781Z,12.50
2018-10-19T22:55:47.990Z,12.50
2018-10-19T22:58:15.240Z,12.44
2018-10-19T23:00:42.383Z,12.50
2018-10-19T23:03:09.589Z,12.46
2018-10-19T23:05:36.799Z,12.43
2018-10-19T23:08:04.509Z,12.32
2018-10-19T23:10:31.701Z,12.31
2018-10-19T23:12:59.014Z,12.30
2018-10-19T23:15:26.152Z,12.26
2018-10-19T23:17:53.310Z,12.34
2018-10-19T23:20:20.622Z,12.33
2018-10-19T23:22:47.854Z,12.17
2018-10-19T23:25:15.103Z,11.98
2018-10-19T23:27:42.407Z,12.01
2018-10-19T23:30:09.549Z,11.95
2018-10-19T23:32:36.758Z,11.89
2018-10-19T23:35:05.359Z,11.97
2018-10-19T23:37:32.566Z,11.92
2018-10-19T23:39:59.808Z,11.92
2018-10-19T23:42:27.074Z,11.85
2018-10-19T23:44:54.309Z,11.86
2018-10-19T23:47:21.454Z,11.79
2018-10-19T23:49:48.635Z,11.81
2018-10-19T23:52:15.825Z,11.80
2018-10-19T23:54:43.007Z,11.82
2018-10-19T23:57:10.269Z,11.81
2018-10-19T23:59:37.570Z,11.76
